TimeMST,TemperatureF,Dew PointF,Humidity,Sea Level PressureIn,VisibilityMPH,Wind Direction,Wind SpeedMPH,Gust SpeedMPH,PrecipitationIn,Events,Conditions,WindDirDegrees,DateUTC
12:53 AM,17.1,12.9,84,30.39,10.0,South,3.5,-,N/A,,Partly Cloudy,180,2012-11-13 07:53:00
1:53 AM,15.1,12.0,88,30.39,10.0,Calm,Calm,-,N/A,,Partly Cloudy,0,2012-11-13 08:53:00
2:53 AM,17.1,12.9,84,30.39,10.0,SSE,3.5,-,N/A,,Partly Cloudy,160,2012-11-13 09:53:00
3:53 AM,18.0,14.0,84,30.39,10.0,SSE,8.1,-,N/A,,Clear,150,2012-11-13 10:53:00
5:53 AM,12.0,9.0,88,30.45,10.0,South,9.2,-,N/A,,Clear,180,2012-11-13 12:53:00
6:53 AM,19.0,14.0,81,30.44,10.0,SSE,6.9,-,N/A,,Clear,160,2012-11-13 13:53:00
7:53 AM,15.1,12.0,88,30.47,10.0,Calm,Calm,-,N/A,,Clear,0,2012-11-13 14:53:00
8:53 AM,18.0,14.0,84,30.44,10.0,Calm,Calm,-,N/A,,Clear,0,2012-11-13 15:53:00
9:53 AM,18.0,14.0,84,30.44,10.0,Calm,Calm,-,N/A,,Clear,0,2012-11-13 16:53:00
10:53 AM,23.0,17.1,78,30.42,10.0,Calm,Calm,-,N/A,,Clear,0,2012-11-13 17:53:00
11:53 AM,26.1,19.9,78,30.39,10.0,WSW,3.5,-,N/A,,Clear,240,2012-11-13 18:53:00
12:53 PM,28.9,21.9,75,30.37,10.0,Calm,Calm,-,N/A,,Clear,0,2012-11-13 19:53:00
1:53 PM,28.9,23.0,78,30.37,10.0,Calm,Calm,-,N/A,,Clear,0,2012-11-13 20:53:00
2:53 PM,28.0,24.1,85,30.35,10.0,South,5.8,-,N/A,,Clear,190,2012-11-13 21:53:00
3:53 PM,26.1,23.0,88,30.36,10.0,South,8.1,-,N/A,,Clear,180,2012-11-13 22:53:00
4:53 PM,25.0,19.9,81,30.36,10.0,South,6.9,-,N/A,,Clear,180,2012-11-13 23:53:00
5:53 PM,19.9,17.1,89,30.39,10.0,South,6.9,-,N/A,,Clear,170,2012-11-14 00:53:00
6:53 PM,17.1,14.0,88,30.38,10.0,South,4.6,-,N/A,,Clear,190,2012-11-14 01:53:00
7:53 PM,19.9,18.0,92,30.38,10.0,Calm,Calm,-,N/A,,Clear,0,2012-11-14 02:53:00
8:53 PM,16.0,14.0,92,30.39,10.0,Calm,Calm,-,N/A,,Clear,0,2012-11-14 03:53:00
9:53 PM,17.1,14.0,88,30.36,10.0,SW,9.2,-,N/A,,Clear,220,2012-11-14 04:53:00
10:53 PM,19.0,16.0,88,30.33,10.0,South,3.5,-,N/A,,Clear,170,2012-11-14 05:53:00
11:53 PM,16.0,15.1,96,30.33,9.0,SSW,6.9,-,N/A,,Clear,200,2012-11-14 06:53:00